Christina O — C6FN7 — position and weather

sailwx.info

Track history (hours):
 
Tides and Currents Weather Stations Pressure Air Temp Water Temp Dewpoint Dewpoint Depression Visibility Wind Speed Wind Dir Waves Ship Positions

Christina O

Operator: V Ships Leisure SAM

Last reported at 2019-Sep-21 09:15 UTC. Time now 2019-Sep-21 23:37 UTC.
Position N 44°60' W 000°33'.

Length 186 m; draft 6.1 m.

Type: Passenger vessel. MMSI: 308322000.

Date/timePositionNaut miles runAvg speedWind from/ knotsBaromVisibWave heightAir tempDewpointWater temp
2019-Sep-21 09:15N 44°60' W 000°33'1514.0
2019-Sep-21 08:12N 45°12' W 000°44'1513.2
2019-Sep-21 07:05N 45°26' W 000°52'113.9
2019-Sep-21 07:00N 45°26' W 000°53'714.2
2019-Sep-21 06:30N 45°32' W 001°00'612.3
2019-Sep-21 06:00N 45°37' W 001°05'714.1
2019-Sep-21 05:30N 45°39' W 001°14'815.0
2019-Sep-21 05:00N 45°36' W 001°24'1212.6
2019-Sep-21 04:03N 45°26' W 001°34'112.1
2019-Sep-21 04:00N 45°26' W 001°35'612.0
2019-Sep-21 03:30N 45°20' W 001°39'612.0
2019-Sep-21 02:59N 45°15' W 001°43'612.1
2019-Sep-21 02:30N 45°10' W 001°47'611.9
2019-Sep-21 02:00N 45°04' W 001°51'612.1
2019-Sep-21 01:30N 44°59' W 001°55'712.0
2019-Sep-21 00:57N 44°53' W 001°59'511.9
2019-Sep-21 00:30N 44°49' W 002°03'611.9
2019-Sep-21 00:00N 44°44' W 002°07'611.9
2019-Sep-20 23:30N 44°38' W 002°11'611.9
2019-Sep-20 23:01N 44°33' W 002°15'611.9
2019-Sep-20 22:31N 44°28' W 002°19'612.2
2019-Sep-20 22:00N 44°22' W 002°23'612.1
2019-Sep-20 21:30N 44°17' W 002°27'713.4
2019-Sep-20 21:00N 44°12' W 002°33'816.1
2019-Sep-20 20:31N 44°06' W 002°41'612.6
2019-Sep-20 20:01N 44°00' W 002°43'611.7
2019-Sep-20 19:30N 43°54' W 002°44'612.2
2019-Sep-20 19:00N 43°49' W 002°48'612.3
2019-Sep-20 18:31N 43°44' W 002°52'612.2
2019-Sep-20 18:00N 43°38' W 002°56'612.3
2019-Sep-20 17:31N 43°33' W 002°59'612.2
2019-Sep-20 17:01N 43°28' W 003°04'510.8
2019-Sep-20 16:30N 43°22' W 003°04'3 4.6
2019-Sep-20 15:57N 43°20' W 003°01'0 0.0
2019-Sep-20 15:30N 43°20' W 003°01'0 0.0
2019-Sep-20 15:00N 43°20' W 003°01'0 0.0
2019-Sep-20 14:30N 43°20' W 003°01'0 0.0
2019-Sep-20 14:00N 43°20' W 003°01'0 0.0
2019-Sep-20 13:27N 43°20' W 003°01'0 0.0
2019-Sep-20 13:00N 43°20' W 003°01'0 0.0
2019-Sep-20 12:30N 43°20' W 003°01'0 0.0
2019-Sep-20 11:57N 43°20' W 003°01'0 0.0
2019-Sep-20 11:30N 43°20' W 003°01'0 0.0
2019-Sep-20 11:00N 43°20' W 003°01'0 0.0
2019-Sep-20 10:30N 43°20' W 003°01'0 0.0
2019-Sep-20 10:00N 43°20' W 003°01'0 0.0
2019-Sep-20 09:30N 43°20' W 003°01'0 0.0
2019-Sep-20 09:00N 43°20' W 003°01'0 0.0
2019-Sep-20 08:25N 43°20' W 003°01'0 0.0
2019-Sep-20 08:00N 43°20' W 003°01'0 0.0
2019-Sep-20 07:30N 43°20' W 003°01'0 0.0
2019-Sep-20 07:00N 43°20' W 003°01'0 0.0
2019-Sep-20 06:27N 43°20' W 003°01'0 0.0
2019-Sep-20 06:00N 43°20' W 003°01'0 0.4
2019-Sep-20 05:30N 43°20' W 003°02'4 7.2
2019-Sep-20 05:00N 43°23' W 003°05'611.8
2019-Sep-20 04:30N 43°28' W 003°09'5 9.3
2019-Sep-20 04:00N 43°31' W 003°15'5 9.2
2019-Sep-20 03:30N 43°33' W 003°20'5 9.2
2019-Sep-20 03:00N 43°35' W 003°26'4 8.9
2019-Sep-20 02:30N 43°36' W 003°32'5 9.8
2019-Sep-20 02:00N 43°37' W 003°38'5 9.4
2019-Sep-20 01:30N 43°37' W 003°45'5 9.1
2019-Sep-20 01:00N 43°37' W 003°51'5 9.2
2019-Sep-20 00:30N 43°38' W 003°57'5 9.2
2019-Sep-20 00:00N 43°38' W 004°04'5 9.3
2019-Sep-19 23:30N 43°39' W 004°10'5 9.3
2019-Sep-19 23:00N 43°39' W 004°16'5 9.3
2019-Sep-19 22:30N 43°39' W 004°23'6 9.3
2019-Sep-19 21:49N 43°38' W 004°32'241 6.5
2019-Sep-18 08:48N 41°12' W 008°51'310.0
2019-Sep-18 08:30N 41°11' W 008°47'2 3.6
2019-Sep-18 08:01N 41°11' W 008°45'0 0.5
2019-Sep-18 07:30N 41°11' W 008°45'0 0.4
2019-Sep-18 07:00N 41°11' W 008°45'1 1.7
2019-Sep-18 06:30N 41°10' W 008°44'2 4.3
2019-Sep-18 06:00N 41°08' W 008°43'9215.3
2019-Sep-18 00:00N 39°45' W 009°34'915.7
2019-Sep-17 23:28N 39°37' W 009°38'715.5
2019-Sep-17 23:00N 39°31' W 009°42'815.7
2019-Sep-17 22:30N 39°23' W 009°43'815.9
2019-Sep-17 22:01N 39°15' W 009°43'816.0
2019-Sep-17 21:30N 39°07' W 009°43'815.9
2019-Sep-17 21:00N 38°59' W 009°43'815.7
2019-Sep-17 20:30N 38°51' W 009°43'815.9
2019-Sep-17 20:00N 38°43' W 009°42'714.3
2019-Sep-17 19:30N 38°38' W 009°37'815.4
2019-Sep-17 19:01N 38°37' W 009°27'815.4
2019-Sep-17 18:31N 38°40' W 009°19'713.8
2019-Sep-17 18:00N 38°42' W 009°10'3 4.7
2019-Sep-17 17:29N 38°43' W 009°07'0 0.0
2019-Sep-17 16:59N 38°43' W 009°07'0 0.0
2019-Sep-17 16:29N 38°43' W 009°07'0 0.0
2019-Sep-17 15:59N 38°43' W 009°07'0 0.0
2019-Sep-17 15:29N 38°43' W 009°07'0 0.0
2019-Sep-17 14:59N 38°43' W 009°07'0 0.0
2019-Sep-17 14:29N 38°43' W 009°07'0 0.0
2019-Sep-17 13:59N 38°43' W 009°07'0 0.0
2019-Sep-17 13:29N 38°43' W 009°07'0 0.0
2019-Sep-17 12:59N 38°43' W 009°07'0 0.0
2019-Sep-17 12:29N 38°43' W 009°07'0 0.0
2019-Sep-17 11:59N 38°43' W 009°07'0 0.0
2019-Sep-17 11:29N 38°43' W 009°07'0 0.0
2019-Sep-17 10:59N 38°43' W 009°07'0 0.0
2019-Sep-17 10:29N 38°43' W 009°07'0 0.0
2019-Sep-17 09:59N 38°43' W 009°07'0 0.0
2019-Sep-17 09:29N 38°43' W 009°07'0 0.0
2019-Sep-17 08:59N 38°43' W 009°07'0 0.0
2019-Sep-17 08:29N 38°43' W 009°07'0 0.0
2019-Sep-17 07:59N 38°43' W 009°07'0 0.0
2019-Sep-17 07:29N 38°43' W 009°07'0 0.0
2019-Sep-17 06:59N 38°43' W 009°07'0 0.0
2019-Sep-17 06:29N 38°43' W 009°07'0 0.0
2019-Sep-17 05:59N 38°43' W 009°07'0 0.0
2019-Sep-17 05:29N 38°43' W 009°07'0 0.0
2019-Sep-17 04:59N 38°43' W 009°07'0 0.0
2019-Sep-17 04:29N 38°43' W 009°07'0 0.0
2019-Sep-17 03:59N 38°43' W 009°07'0 0.0
2019-Sep-17 03:29N 38°43' W 009°07'0 0.0
2019-Sep-17 02:59N 38°43' W 009°07'0 0.0
2019-Sep-17 02:29N 38°43' W 009°07'0 0.0
2019-Sep-17 01:59N 38°43' W 009°07'0 0.0
2019-Sep-17 01:29N 38°43' W 009°07'0 0.0
2019-Sep-17 00:59N 38°43' W 009°07'0 0.0
2019-Sep-17 00:29N 38°43' W 009°07'0 0.0
2019-Sep-16 23:59N 38°43' W 009°07'0 0.0
2019-Sep-16 23:29N 38°43' W 009°07'0 0.0
2019-Sep-16 22:59N 38°43' W 009°07'0 0.0
2019-Sep-16 22:29N 38°43' W 009°07'0 0.0
2019-Sep-16 21:59N 38°43' W 009°07'0 0.0
2019-Sep-16 21:29N 38°43' W 009°07'0 0.0
2019-Sep-16 20:59N 38°43' W 009°07'0 0.0
2019-Sep-16 20:29N 38°43' W 009°07'0 0.0
2019-Sep-16 19:59N 38°43' W 009°07'0 0.0
2019-Sep-16 19:29N 38°43' W 009°07'0 0.0
2019-Sep-16 18:59N 38°43' W 009°07'0 0.0
2019-Sep-16 18:29N 38°43' W 009°07'0 0.0
2019-Sep-16 17:59N 38°43' W 009°07'0 0.0
2019-Sep-16 17:29N 38°43' W 009°07'0 0.0
2019-Sep-16 16:59N 38°43' W 009°07'0 0.0
2019-Sep-16 16:29N 38°43' W 009°07'0 0.0
2019-Sep-16 15:59N 38°43' W 009°07'0 0.0
2019-Sep-16 15:29N 38°43' W 009°07'0 0.0
2019-Sep-16 14:59N 38°43' W 009°07'0 0.0
2019-Sep-16 14:29N 38°43' W 009°07'0 0.0
2019-Sep-16 13:59N 38°43' W 009°07'0 0.0
2019-Sep-16 13:29N 38°43' W 009°07'0 0.0
2019-Sep-16 12:59N 38°43' W 009°07'0 0.0
2019-Sep-16 12:29N 38°43' W 009°07'0 0.0
2019-Sep-16 11:59N 38°43' W 009°07'0 0.0
2019-Sep-16 11:29N 38°43' W 009°07'0 0.0
2019-Sep-16 10:59N 38°43' W 009°07'0 0.0
2019-Sep-16 10:29N 38°43' W 009°07'0 0.0
2019-Sep-16 09:59N 38°43' W 009°07'0 0.0
2019-Sep-16 09:29N 38°43' W 009°07'0 0.0
2019-Sep-16 08:59N 38°43' W 009°07'0 0.0
2019-Sep-16 08:29N 38°43' W 009°07'0 0.0
2019-Sep-16 07:59N 38°43' W 009°07'0 0.0
2019-Sep-16 07:29N 38°43' W 009°07'0 0.0
2019-Sep-16 06:59N 38°43' W 009°07'0 0.0
2019-Sep-16 06:30N 38°43' W 009°07'3 5.6
2019-Sep-16 06:00N 38°41' W 009°10'5 9.7
2019-Sep-16 05:30N 38°41' W 009°16'611.9
2019-Sep-16 05:00N 38°37' W 009°22'611.8
2019-Sep-16 04:30N 38°32' W 009°23'612.9
2019-Sep-16 04:00N 38°25' W 009°24'713.6
2019-Sep-16 03:31N 38°18' W 009°23'713.3
2019-Sep-16 03:00N 38°12' W 009°23'713.2
2019-Sep-16 02:30N 38°05' W 009°23'613.0
2019-Sep-16 02:00N 37°59' W 009°23'612.9
2019-Sep-16 01:30N 37°52' W 009°23'713.0
2019-Sep-16 01:01N 37°46' W 009°22'713.2
2019-Sep-16 00:30N 37°39' W 009°22'612.9
2019-Sep-16 00:01N 37°33' W 009°22'713.0
2019-Sep-15 23:30N 37°26' W 009°22'713.2
2019-Sep-15 23:01N 37°20' W 009°22'713.1
2019-Sep-15 22:30N 37°13' W 009°21'713.1
2019-Sep-15 22:01N 37°07' W 009°21'613.0
2019-Sep-15 21:30N 37°00' W 009°21'713.0
2019-Sep-15 21:01N 36°54' W 009°19'612.8
2019-Sep-15 20:30N 36°49' W 009°14'612.8
2019-Sep-15 20:00N 36°45' W 009°07'613.1
2019-Sep-15 19:31N 36°44' W 008°59'712.9
2019-Sep-15 18:59N 36°48' W 008°53'613.2
2019-Sep-15 18:30N 36°53' W 008°48'713.1
2019-Sep-15 18:00N 36°57' W 008°42'713.3
2019-Sep-15 17:31N 37°02' W 008°36'611.4
2019-Sep-15 17:00N 37°07' W 008°32'1 0.8
2019-Sep-15 15:45N 37°08' W 008°32'0 0.0
2019-Sep-15 14:45N 37°08' W 008°32'0 0.0
2019-Sep-15 14:24N 37°08' W 008°32'0 0.0
2019-Sep-15 13:58N 37°08' W 008°32'0 0.0
2019-Sep-15 12:57N 37°08' W 008°32'0 0.0
2019-Sep-15 11:11N 37°08' W 008°32'0 0.0
2019-Sep-15 11:00N 37°08' W 008°32'0 0.0
2019-Sep-15 10:29N 37°08' W 008°32'0 0.0
2019-Sep-15 09:59N 37°08' W 008°32'0 0.0
2019-Sep-15 09:21N 37°08' W 008°32'0 0.0
2019-Sep-15 08:54N 37°08' W 008°32'0 0.0
2019-Sep-15 08:28N 37°08' W 008°32'0 0.0
2019-Sep-15 07:45N 37°08' W 008°32'0 0.4
2019-Sep-15 07:30N 37°08' W 008°32'3 5.4
2019-Sep-15 06:59N 37°05' W 008°32'611.8
2019-Sep-15 06:29N 37°01' W 008°26'611.6
2019-Sep-15 05:58N 36°59' W 008°19'711.3
2019-Sep-15 05:20N 36°56' W 008°11'512.2
2019-Sep-15 04:57N 36°54' W 008°05'511.3
2019-Sep-15 04:30N 36°53' W 007°59'611.7
2019-Sep-15 04:00N 36°51' W 007°52'  
Track history (hours):
 
Tides and Currents Weather Stations Pressure Air Temp Water Temp Dewpoint Dewpoint Depression Visibility Wind Speed Wind Dir Waves Ship Positions

Christina O

Operator: V Ships Leisure SAM

Last reported at 2019-Sep-21 09:15 UTC. Time now 2019-Sep-21 23:37 UTC.
Position N 44°60' W 000°33'.

Length 186 m; draft 6.1 m.

Type: Passenger vessel. MMSI: 308322000.

Date/timePositionNaut miles runAvg speedWind from/ knotsBaromVisibWave heightAir tempDewpointWater temp
2019-Sep-21 09:15N 44°60' W 000°33'1514.0
2019-Sep-21 08:12N 45°12' W 000°44'1513.2
2019-Sep-21 07:05N 45°26' W 000°52'113.9
2019-Sep-21 07:00N 45°26' W 000°53'714.2
2019-Sep-21 06:30N 45°32' W 001°00'612.3
2019-Sep-21 06:00N 45°37' W 001°05'714.1
2019-Sep-21 05:30N 45°39' W 001°14'815.0
2019-Sep-21 05:00N 45°36' W 001°24'1212.6
2019-Sep-21 04:03N 45°26' W 001°34'112.1
2019-Sep-21 04:00N 45°26' W 001°35'612.0
2019-Sep-21 03:30N 45°20' W 001°39'612.0
2019-Sep-21 02:59N 45°15' W 001°43'612.1
2019-Sep-21 02:30N 45°10' W 001°47'611.9
2019-Sep-21 02:00N 45°04' W 001°51'612.1
2019-Sep-21 01:30N 44°59' W 001°55'712.0
2019-Sep-21 00:57N 44°53' W 001°59'511.9
2019-Sep-21 00:30N 44°49' W 002°03'611.9
2019-Sep-21 00:00N 44°44' W 002°07'611.9
2019-Sep-20 23:30N 44°38' W 002°11'611.9
2019-Sep-20 23:01N 44°33' W 002°15'611.9
2019-Sep-20 22:31N 44°28' W 002°19'612.2
2019-Sep-20 22:00N 44°22' W 002°23'612.1
2019-Sep-20 21:30N 44°17' W 002°27'713.4
2019-Sep-20 21:00N 44°12' W 002°33'816.1
2019-Sep-20 20:31N 44°06' W 002°41'612.6
2019-Sep-20 20:01N 44°00' W 002°43'611.7
2019-Sep-20 19:30N 43°54' W 002°44'612.2
2019-Sep-20 19:00N 43°49' W 002°48'612.3
2019-Sep-20 18:31N 43°44' W 002°52'612.2
2019-Sep-20 18:00N 43°38' W 002°56'612.3
2019-Sep-20 17:31N 43°33' W 002°59'612.2
2019-Sep-20 17:01N 43°28' W 003°04'510.8
2019-Sep-20 16:30N 43°22' W 003°04'3 4.6
2019-Sep-20 15:57N 43°20' W 003°01'0 0.0
2019-Sep-20 15:30N 43°20' W 003°01'0 0.0
2019-Sep-20 15:00N 43°20' W 003°01'0 0.0
2019-Sep-20 14:30N 43°20' W 003°01'0 0.0
2019-Sep-20 14:00N 43°20' W 003°01'0 0.0
2019-Sep-20 13:27N 43°20' W 003°01'0 0.0
2019-Sep-20 13:00N 43°20' W 003°01'0 0.0
2019-Sep-20 12:30N 43°20' W 003°01'0 0.0
2019-Sep-20 11:57N 43°20' W 003°01'0 0.0
2019-Sep-20 11:30N 43°20' W 003°01'0 0.0
2019-Sep-20 11:00N 43°20' W 003°01'0 0.0
2019-Sep-20 10:30N 43°20' W 003°01'0 0.0
2019-Sep-20 10:00N 43°20' W 003°01'0 0.0
2019-Sep-20 09:30N 43°20' W 003°01'0 0.0
2019-Sep-20 09:00N 43°20' W 003°01'0 0.0
2019-Sep-20 08:25N 43°20' W 003°01'0 0.0
2019-Sep-20 08:00N 43°20' W 003°01'0 0.0
2019-Sep-20 07:30N 43°20' W 003°01'0 0.0
2019-Sep-20 07:00N 43°20' W 003°01'0 0.0
2019-Sep-20 06:27N 43°20' W 003°01'0 0.0
2019-Sep-20 06:00N 43°20' W 003°01'0 0.4
2019-Sep-20 05:30N 43°20' W 003°02'4 7.2
2019-Sep-20 05:00N 43°23' W 003°05'611.8
2019-Sep-20 04:30N 43°28' W 003°09'5 9.3
2019-Sep-20 04:00N 43°31' W 003°15'5 9.2
2019-Sep-20 03:30N 43°33' W 003°20'5 9.2
2019-Sep-20 03:00N 43°35' W 003°26'4 8.9
2019-Sep-20 02:30N 43°36' W 003°32'5 9.8
2019-Sep-20 02:00N 43°37' W 003°38'5 9.4
2019-Sep-20 01:30N 43°37' W 003°45'5 9.1
2019-Sep-20 01:00N 43°37' W 003°51'5 9.2
2019-Sep-20 00:30N 43°38' W 003°57'5 9.2
2019-Sep-20 00:00N 43°38' W 004°04'5 9.3
2019-Sep-19 23:30N 43°39' W 004°10'5 9.3
2019-Sep-19 23:00N 43°39' W 004°16'5 9.3
2019-Sep-19 22:30N 43°39' W 004°23'6 9.3
2019-Sep-19 21:49N 43°38' W 004°32'241 6.5
2019-Sep-18 08:48N 41°12' W 008°51'310.0
2019-Sep-18 08:30N 41°11' W 008°47'2 3.6
2019-Sep-18 08:01N 41°11' W 008°45'0 0.5
2019-Sep-18 07:30N 41°11' W 008°45'0 0.4
2019-Sep-18 07:00N 41°11' W 008°45'1 1.7
2019-Sep-18 06:30N 41°10' W 008°44'2 4.3
2019-Sep-18 06:00N 41°08' W 008°43'9215.3
2019-Sep-18 00:00N 39°45' W 009°34'915.7
2019-Sep-17 23:28N 39°37' W 009°38'715.5
2019-Sep-17 23:00N 39°31' W 009°42'815.7
2019-Sep-17 22:30N 39°23' W 009°43'815.9
2019-Sep-17 22:01N 39°15' W 009°43'816.0
2019-Sep-17 21:30N 39°07' W 009°43'815.9
2019-Sep-17 21:00N 38°59' W 009°43'815.7
2019-Sep-17 20:30N 38°51' W 009°43'815.9
2019-Sep-17 20:00N 38°43' W 009°42'714.3
2019-Sep-17 19:30N 38°38' W 009°37'815.4
2019-Sep-17 19:01N 38°37' W 009°27'815.4
2019-Sep-17 18:31N 38°40' W 009°19'713.8
2019-Sep-17 18:00N 38°42' W 009°10'3 4.7
2019-Sep-17 17:29N 38°43' W 009°07'0 0.0
2019-Sep-17 16:59N 38°43' W 009°07'0 0.0
2019-Sep-17 16:29N 38°43' W 009°07'0 0.0
2019-Sep-17 15:59N 38°43' W 009°07'0 0.0
2019-Sep-17 15:29N 38°43' W 009°07'0 0.0
2019-Sep-17 14:59N 38°43' W 009°07'0 0.0
2019-Sep-17 14:29N 38°43' W 009°07'0 0.0
2019-Sep-17 13:59N 38°43' W 009°07'0 0.0
2019-Sep-17 13:29N 38°43' W 009°07'0 0.0
2019-Sep-17 12:59N 38°43' W 009°07'0 0.0
2019-Sep-17 12:29N 38°43' W 009°07'0 0.0
2019-Sep-17 11:59N 38°43' W 009°07'0 0.0
2019-Sep-17 11:29N 38°43' W 009°07'0 0.0
2019-Sep-17 10:59N 38°43' W 009°07'0 0.0
2019-Sep-17 10:29N 38°43' W 009°07'0 0.0
2019-Sep-17 09:59N 38°43' W 009°07'0 0.0
2019-Sep-17 09:29N 38°43' W 009°07'0 0.0
2019-Sep-17 08:59N 38°43' W 009°07'0 0.0
2019-Sep-17 08:29N 38°43' W 009°07'0 0.0
2019-Sep-17 07:59N 38°43' W 009°07'0 0.0
2019-Sep-17 07:29N 38°43' W 009°07'0 0.0
2019-Sep-17 06:59N 38°43' W 009°07'0 0.0
2019-Sep-17 06:29N 38°43' W 009°07'0 0.0
2019-Sep-17 05:59N 38°43' W 009°07'0 0.0
2019-Sep-17 05:29N 38°43' W 009°07'0 0.0
2019-Sep-17 04:59N 38°43' W 009°07'0 0.0
2019-Sep-17 04:29N 38°43' W 009°07'0 0.0
2019-Sep-17 03:59N 38°43' W 009°07'0 0.0
2019-Sep-17 03:29N 38°43' W 009°07'0 0.0
2019-Sep-17 02:59N 38°43' W 009°07'0 0.0
2019-Sep-17 02:29N 38°43' W 009°07'0 0.0
2019-Sep-17 01:59N 38°43' W 009°07'0 0.0
2019-Sep-17 01:29N 38°43' W 009°07'0 0.0
2019-Sep-17 00:59N 38°43' W 009°07'0 0.0
2019-Sep-17 00:29N 38°43' W 009°07'0 0.0
2019-Sep-16 23:59N 38°43' W 009°07'0 0.0
2019-Sep-16 23:29N 38°43' W 009°07'0 0.0
2019-Sep-16 22:59N 38°43' W 009°07'0 0.0
2019-Sep-16 22:29N 38°43' W 009°07'0 0.0
2019-Sep-16 21:59N 38°43' W 009°07'0 0.0
2019-Sep-16 21:29N 38°43' W 009°07'0 0.0
2019-Sep-16 20:59N 38°43' W 009°07'0 0.0
2019-Sep-16 20:29N 38°43' W 009°07'0 0.0
2019-Sep-16 19:59N 38°43' W 009°07'0 0.0
2019-Sep-16 19:29N 38°43' W 009°07'0 0.0
2019-Sep-16 18:59N 38°43' W 009°07'0 0.0
2019-Sep-16 18:29N 38°43' W 009°07'0 0.0
2019-Sep-16 17:59N 38°43' W 009°07'0 0.0
2019-Sep-16 17:29N 38°43' W 009°07'0 0.0
2019-Sep-16 16:59N 38°43' W 009°07'0 0.0
2019-Sep-16 16:29N 38°43' W 009°07'0 0.0
2019-Sep-16 15:59N 38°43' W 009°07'0 0.0
2019-Sep-16 15:29N 38°43' W 009°07'0 0.0
2019-Sep-16 14:59N 38°43' W 009°07'0 0.0
2019-Sep-16 14:29N 38°43' W 009°07'0 0.0
2019-Sep-16 13:59N 38°43' W 009°07'0 0.0
2019-Sep-16 13:29N 38°43' W 009°07'0 0.0
2019-Sep-16 12:59N 38°43' W 009°07'0 0.0
2019-Sep-16 12:29N 38°43' W 009°07'0 0.0
2019-Sep-16 11:59N 38°43' W 009°07'0 0.0
2019-Sep-16 11:29N 38°43' W 009°07'0 0.0
2019-Sep-16 10:59N 38°43' W 009°07'0 0.0
2019-Sep-16 10:29N 38°43' W 009°07'0 0.0
2019-Sep-16 09:59N 38°43' W 009°07'0 0.0
2019-Sep-16 09:29N 38°43' W 009°07'0 0.0
2019-Sep-16 08:59N 38°43' W 009°07'0 0.0
2019-Sep-16 08:29N 38°43' W 009°07'0 0.0
2019-Sep-16 07:59N 38°43' W 009°07'0 0.0
2019-Sep-16 07:29N 38°43' W 009°07'0 0.0
2019-Sep-16 06:59N 38°43' W 009°07'0 0.0
2019-Sep-16 06:30N 38°43' W 009°07'3 5.6
2019-Sep-16 06:00N 38°41' W 009°10'5 9.7
2019-Sep-16 05:30N 38°41' W 009°16'611.9
2019-Sep-16 05:00N 38°37' W 009°22'611.8
2019-Sep-16 04:30N 38°32' W 009°23'612.9
2019-Sep-16 04:00N 38°25' W 009°24'713.6
2019-Sep-16 03:31N 38°18' W 009°23'713.3
2019-Sep-16 03:00N 38°12' W 009°23'713.2
2019-Sep-16 02:30N 38°05' W 009°23'613.0
2019-Sep-16 02:00N 37°59' W 009°23'612.9
2019-Sep-16 01:30N 37°52' W 009°23'713.0
2019-Sep-16 01:01N 37°46' W 009°22'713.2
2019-Sep-16 00:30N 37°39' W 009°22'612.9
2019-Sep-16 00:01N 37°33' W 009°22'713.0
2019-Sep-15 23:30N 37°26' W 009°22'713.2
2019-Sep-15 23:01N 37°20' W 009°22'713.1
2019-Sep-15 22:30N 37°13' W 009°21'713.1
2019-Sep-15 22:01N 37°07' W 009°21'613.0
2019-Sep-15 21:30N 37°00' W 009°21'713.0
2019-Sep-15 21:01N 36°54' W 009°19'612.8
2019-Sep-15 20:30N 36°49' W 009°14'612.8
2019-Sep-15 20:00N 36°45' W 009°07'613.1
2019-Sep-15 19:31N 36°44' W 008°59'712.9
2019-Sep-15 18:59N 36°48' W 008°53'613.2
2019-Sep-15 18:30N 36°53' W 008°48'713.1
2019-Sep-15 18:00N 36°57' W 008°42'713.3
2019-Sep-15 17:31N 37°02' W 008°36'611.4
2019-Sep-15 17:00N 37°07' W 008°32'1 0.8
2019-Sep-15 15:45N 37°08' W 008°32'0 0.0
2019-Sep-15 14:45N 37°08' W 008°32'0 0.0
2019-Sep-15 14:24N 37°08' W 008°32'0 0.0
2019-Sep-15 13:58N 37°08' W 008°32'0 0.0
2019-Sep-15 12:57N 37°08' W 008°32'0 0.0
2019-Sep-15 11:11N 37°08' W 008°32'0 0.0
2019-Sep-15 11:00N 37°08' W 008°32'0 0.0
2019-Sep-15 10:29N 37°08' W 008°32'0 0.0
2019-Sep-15 09:59N 37°08' W 008°32'0 0.0
2019-Sep-15 09:21N 37°08' W 008°32'0 0.0
2019-Sep-15 08:54N 37°08' W 008°32'0 0.0
2019-Sep-15 08:28N 37°08' W 008°32'0 0.0
2019-Sep-15 07:45N 37°08' W 008°32'0 0.4
2019-Sep-15 07:30N 37°08' W 008°32'3 5.4
2019-Sep-15 06:59N 37°05' W 008°32'611.8
2019-Sep-15 06:29N 37°01' W 008°26'611.6
2019-Sep-15 05:58N 36°59' W 008°19'711.3
2019-Sep-15 05:20N 36°56' W 008°11'512.2
2019-Sep-15 04:57N 36°54' W 008°05'511.3
2019-Sep-15 04:30N 36°53' W 007°59'611.7
2019-Sep-15 04:00N 36°51' W 007°52'  

Dump ship's entire track history